Time;durP1;ratioP1;P1;durP2;ratioP2;P2;SDS_P1;SDS_P2;PMS_P1;PMS_P2;Temp;Humidity;BMP_temperature;BMP_pressure;BME280_temperature;BME280_humidity;BME280_pressure;Samples;Min_cycle;Max_cycle;Signal;HPM_P1;HPM_P2
2021/07/16 00:01:38;;;;;;;37.03;10.07;;;;;;;21.50;61.57;101260.41;6181974;23;20005;-81
2021/07/16 00:04:04;;;;;;;43.83;10.35;;;;;;;21.68;61.38;101261.84;6180814;23;20005;-81
2021/07/16 00:06:30;;;;;;;33.40;9.80;;;;;;;21.66;61.48;101261.19;6150309;23;20034;-81
2021/07/16 00:08:55;;;;;;;39.72;10.75;;;;;;;21.46;62.04;101263.72;6151863;23;20005;-81
2021/07/16 00:11:21;;;;;;;36.03;10.05;;;;;;;21.72;61.39;101265.88;6151800;23;20060;-81
2021/07/16 00:13:46;;;;;;;42.83;10.27;;;;;;;21.66;61.47;101258.44;6150032;23;20006;-81
2021/07/16 00:16:12;;;;;;;37.90;9.40;;;;;;;22.00;60.45;101264.00;6151920;23;20005;-81
2021/07/16 00:18:37;;;;;;;38.90;10.60;;;;;;;21.54;61.61;101266.31;6150243;23;20032;-81
2021/07/16 00:21:04;;;;;;;40.78;9.57;;;;;;;21.74;61.01;101266.53;6151982;23;20013;-81
2021/07/16 00:23:30;;;;;;;38.40;10.43;;;;;;;21.94;60.46;101272.16;6152184;23;20001;-81
2021/07/16 00:25:56;;;;;;;39.78;9.73;;;;;;;21.66;60.64;101266.66;6152255;23;20089;-81
2021/07/16 00:28:22;;;;;;;35.88;9.57;;;;;;;21.55;61.42;101263.41;6151906;23;20006;-82
2021/07/16 00:30:48;;;;;;;39.88;10.55;;;;;;;21.73;60.77;101265.69;6152158;23;20009;-81
2021/07/16 00:33:13;;;;;;;49.03;11.07;;;;;;;21.62;61.11;101257.16;6151987;23;20013;-81
2021/07/16 00:35:38;;;;;;;31.58;8.95;;;;;;;21.54;61.36;101260.84;6151681;23;20419;-81
2021/07/16 00:38:04;;;;;;;34.13;9.32;;;;;;;21.52;61.66;101255.59;6152602;23;20012;-81
2021/07/16 00:40:29;;;;;;;37.70;9.55;;;;;;;21.55;61.51;101259.81;6150648;23;20009;-81
2021/07/16 00:42:55;;;;;;;33.13;10.68;;;;;;;21.40;61.75;101267.25;6152023;23;19997;-81
2021/07/16 00:45:22;;;;;;;33.47;9.80;;;;;;;21.55;61.36;101254.34;6152223;23;20020;-81
2021/07/16 00:47:48;;;;;;;35.05;9.85;;;;;;;21.43;61.90;101264.97;6150435;23;20350;-81
2021/07/16 00:50:21;;;;;;;37.33;10.40;;;;;;;21.48;61.81;101265.22;6152003;23;20005;-81
2021/07/16 00:52:47;;;;;;;35.05;9.45;;;;;;;21.61;61.23;101259.03;6152535;23;20399;-81
2021/07/16 00:55:14;;;;;;;38.08;10.95;;;;;;;21.49;61.59;101266.09;6149821;23;20020;-81
2021/07/16 00:57:40;;;;;;;39.90;10.70;;;;;;;21.30;62.51;101262.91;6152477;23;20012;-81
2021/07/16 01:00:08;;;;;;;36.97;9.18;;;;;;;21.54;61.60;101266.31;6152022;23;20009;-81
2021/07/16 01:02:33;;;;;;;49.30;11.85;;;;;;;21.37;62.34;101268.47;6152130;23;20006;-81
2021/07/16 01:04:59;;;;;;;29.52;9.35;;;;;;;21.52;61.66;101272.00;6151849;23;20017;-81
2021/07/16 01:07:25;;;;;;;40.33;10.40;;;;;;;21.56;61.63;101272.47;6152456;23;20216;-81
2021/07/16 01:09:51;;;;;;;28.75;9.52;;;;;;;21.57;61.52;101268.66;6152311;23;20080;-81
2021/07/16 01:12:21;;;;;;;39.25;12.15;;;;;;;21.36;62.01;101271.38;6152009;23;20386;-81
2021/07/16 01:14:47;;;;;;;31.90;9.52;;;;;;;21.44;61.71;101265.81;6150858;23;20005;-81
2021/07/16 01:17:12;;;;;;;40.30;10.95;;;;;;;21.49;61.85;101282.50;6153683;23;20010;-81
2021/07/16 01:19:50;;;;;;;28.85;9.70;;;;;;;21.42;61.89;101276.94;6151897;23;20750;-81
2021/07/16 01:22:16;;;;;;;37.60;11.05;;;;;;;21.32;61.61;101279.13;6153756;23;20427;-81
2021/07/16 01:24:42;;;;;;;42.80;11.32;;;;;;;21.34;61.85;101291.56;6153371;23;20693;-81
2021/07/16 01:27:07;;;;;;;35.05;10.55;;;;;;;21.09;61.71;101287.50;6153556;23;20010;-81
2021/07/16 01:29:34;;;;;;;43.10;11.95;;;;;;;21.10;62.45;101275.50;6153154;23;20084;-81
2021/07/16 01:31:59;;;;;;;34.35;9.27;;;;;;;21.23;62.02;101281.13;6153382;23;20070;-81
2021/07/16 01:34:25;;;;;;;38.85;9.45;;;;;;;21.30;61.74;101281.19;6153323;23;20029;-81
2021/07/16 01:36:50;;;;;;;33.33;10.13;;;;;;;21.34;61.67;101283.34;6153196;23;20024;-81
2021/07/16 01:39:15;;;;;;;39.55;10.68;;;;;;;21.39;61.49;101285.53;6153418;23;20009;-81
2021/07/16 01:41:41;;;;;;;30.50;10.00;;;;;;;21.44;61.37;101276.75;6153705;23;20009;-81
2021/07/16 01:44:06;;;;;;;35.88;10.00;;;;;;;21.54;60.94;101277.28;6153127;23;20051;-81
2021/07/16 01:46:32;;;;;;;32.97;10.20;;;;;;;21.40;61.51;101270.81;6153712;23;20506;-81
2021/07/16 01:48:58;;;;;;;37.70;11.13;;;;;;;21.53;61.09;101270.97;6153288;23;20054;-81
2021/07/16 01:51:24;;;;;;;38.30;11.52;;;;;;;21.38;61.57;101270.16;6152991;23;20088;-81
2021/07/16 01:53:50;;;;;;;35.88;10.25;;;;;;;21.36;61.91;101280.44;6153129;23;20084;-81
2021/07/16 01:56:17;;;;;;;36.58;9.95;;;;;;;21.43;61.59;101278.66;6153317;23;20013;-81
2021/07/16 01:58:42;;;;;;;35.00;10.85;;;;;;;21.42;61.78;101295.25;6153508;23;20088;-81
2021/07/16 02:01:14;;;;;;;29.13;9.80;;;;;;;21.43;61.39;101289.59;6153225;23;20037;-81
2021/07/16 02:03:41;;;;;;;36.90;12.73;;;;;;;21.32;61.66;101279.94;6153345;23;20001;-81
2021/07/16 02:06:06;;;;;;;32.28;11.20;;;;;;;21.23;61.86;101267.44;6152938;23;20025;-81
2021/07/16 02:08:32;;;;;;;28.27;10.25;;;;;;;21.24;61.88;101271.88;6152849;23;20020;-81
2021/07/16 02:10:57;;;;;;;29.88;11.07;;;;;;;21.35;61.61;101278.72;6152727;23;20041;-81
2021/07/16 02:13:23;;;;;;;32.03;9.98;;;;;;;21.29;61.83;101276.75;6153198;23;20338;-81
2021/07/16 02:15:50;;;;;;;28.95;13.00;;;;;;;21.29;61.85;101287.72;6153208;23;20005;-81
2021/07/16 02:18:19;;;;;;;32.13;10.80;;;;;;;21.42;61.65;101276.09;6153310;23;20376;-81
2021/07/16 02:20:46;;;;;;;28.75;10.20;;;;;;;21.46;61.65;101280.16;6153012;23;20671;-81
2021/07/16 02:23:16;;;;;;;29.92;11.85;;;;;;;21.40;61.83;101275.47;6152894;23;20457;-81
2021/07/16 02:25:41;;;;;;;32.03;12.27;;;;;;;21.26;62.24;101278.00;6151152;23;20013;-81
2021/07/16 02:28:16;;;;;;;33.55;11.43;;;;;;;21.37;62.18;101282.16;6152889;23;20009;-81
2021/07/16 02:30:42;;;;;;;36.55;12.40;;;;;;;21.32;62.51;101277.22;6152994;23;20088;-81
2021/07/16 02:33:07;;;;;;;34.78;12.75;;;;;;;21.19;63.15;101279.81;6153000;23;20052;-81
2021/07/16 02:35:33;;;;;;;39.10;11.98;;;;;;;21.28;62.97;101277.81;6152553;23;20019;-81
2021/07/16 02:38:00;;;;;;;34.63;11.98;;;;;;;21.37;62.60;101290.38;6151099;23;20005;-81
2021/07/16 02:40:26;;;;;;;37.30;13.00;;;;;;;21.24;63.16;101285.56;6152771;23;20465;-81
2021/07/16 02:42:51;;;;;;;39.17;13.00;;;;;;;21.27;63.04;101284.31;6152607;23;20001;-81
2021/07/16 02:45:19;;;;;;;39.38;12.82;;;;;;;21.14;63.33;101287.75;6152266;23;20363;-81
2021/07/16 02:47:44;;;;;;;38.75;12.95;;;;;;;21.38;62.73;101289.31;6151502;23;20009;-81
2021/07/16 02:50:12;;;;;;;32.45;12.50;;;;;;;21.32;62.88;101296.38;6151706;23;20401;-81
2021/07/16 02:52:39;;;;;;;36.90;13.45;;;;;;;21.22;63.56;101289.53;6152796;23;20618;-81
2021/07/16 02:55:05;;;;;;;33.20;12.48;;;;;;;21.27;63.43;101292.50;6150605;23;20008;-81
2021/07/16 02:57:31;;;;;;;34.83;11.77;;;;;;;21.34;63.19;101291.56;6152551;23;20337;-81
2021/07/16 02:59:56;;;;;;;38.05;14.30;;;;;;;21.47;62.50;101301.00;6152313;23;20080;-81
2021/07/16 03:02:21;;;;;;;37.20;14.77;;;;;;;21.48;62.27;101294.47;6150798;23;20430;-81
2021/07/16 03:04:49;;;;;;;46.88;14.45;;;;;;;21.50;62.32;101293.25;6152126;23;20053;-81
2021/07/16 03:07:16;;;;;;;29.45;11.70;;;;;;;21.51;62.10;101294.09;6152435;23;20006;-81
2021/07/16 03:09:41;;;;;;;47.45;14.70;;;;;;;21.29;63.08;101293.19;6150310;23;20017;-81
2021/07/16 03:12:07;;;;;;;37.97;14.82;;;;;;;21.26;63.13;101282.63;6152628;23;20010;-81
2021/07/16 03:14:32;;;;;;;38.95;12.32;;;;;;;21.09;63.80;101276.53;6152068;23;20006;-81
2021/07/16 03:16:57;;;;;;;32.53;13.93;;;;;;;21.18;63.70;101280.88;6152155;23;20009;-81
2021/07/16 03:19:23;;;;;;;39.78;12.65;;;;;;;21.15;64.17;101286.72;6152147;23;20009;-81
2021/07/16 03:21:48;;;;;;;40.13;13.45;;;;;;;21.24;63.93;101281.97;6152108;23;20005;-81
2021/07/16 03:24:15;;;;;;;44.22;13.80;;;;;;;21.39;63.13;101282.78;6152193;23;20080;-80
2021/07/16 03:26:40;;;;;;;39.20;14.88;;;;;;;21.25;63.49;101286.41;6152003;23;20014;-81
2021/07/16 03:29:05;;;;;;;35.22;12.55;;;;;;;21.32;63.52;101285.44;6152625;23;20016;-81
2021/07/16 03:31:31;;;;;;;42.97;14.48;;;;;;;21.25;63.83;101284.50;6150096;23;20016;-81
2021/07/16 03:33:56;;;;;;;35.75;13.23;;;;;;;21.33;63.38;101283.53;6152203;23;20009;-81
2021/07/16 03:36:21;;;;;;;38.30;13.40;;;;;;;21.33;63.51;101287.16;6152352;23;20079;-81
2021/07/16 03:38:48;;;;;;;37.00;14.55;;;;;;;21.15;64.08;101278.50;6152180;23;20448;-81
2021/07/16 03:41:14;;;;;;;41.47;13.48;;;;;;;21.25;63.85;101280.94;6150236;23;20013;-81
2021/07/16 03:43:40;;;;;;;51.50;15.52;;;;;;;21.19;64.11;101285.28;6151929;23;20005;-81
2021/07/16 03:46:05;;;;;;;38.90;14.98;;;;;;;21.17;64.21;101279.16;6152513;23;20080;-80
2021/07/16 03:48:32;;;;;;;33.17;13.00;;;;;;;21.20;64.12;101286.13;6152198;23;20009;-81
2021/07/16 03:50:58;;;;;;;35.05;15.40;;;;;;;21.15;64.37;101283.97;6150252;23;20067;-81
2021/07/16 03:53:23;;;;;;;37.00;14.65;;;;;;;21.01;64.88;101287.59;6150225;23;20010;-81
2021/07/16 03:55:49;;;;;;;39.90;14.30;;;;;;;21.07;65.08;101284.09;6152348;23;20368;-81
2021/07/16 03:58:14;;;;;;;34.30;14.13;;;;;;;21.07;65.19;101293.13;6152089;23;20113;-81
2021/07/16 04:00:40;;;;;;;42.42;14.15;;;;;;;21.03;65.23;101297.28;6152199;23;20024;-81
2021/07/16 04:03:05;;;;;;;33.03;12.93;;;;;;;21.22;64.62;101287.63;6150411;23;20005;-81
2021/07/16 04:05:32;;;;;;;29.25;12.32;;;;;;;21.27;64.43;101290.66;6152360;23;20116;-81
2021/07/16 04:08:05;;;;;;;36.15;14.50;;;;;;;21.44;64.14;101288.53;6150973;23;20093;-81
2021/07/16 04:10:32;;;;;;;45.17;15.52;;;;;;;21.32;64.73;101287.31;6151885;23;20005;-81
2021/07/16 04:13:07;;;;;;;31.60;13.68;;;;;;;21.49;63.78;101282.50;6152014;23;20021;-81
2021/07/16 04:15:32;;;;;;;40.67;15.40;;;;;;;21.42;64.30;101289.78;6153989;23;20013;-79
2021/07/16 04:18:00;;;;;;;34.28;12.27;;;;;;;21.52;63.64;101282.94;6156761;23;20010;-78
2021/07/16 04:20:28;;;;;;;40.97;14.38;;;;;;;21.44;64.17;101295.91;6156356;23;20014;-79
2021/07/16 04:22:54;;;;;;;36.40;14.02;;;;;;;21.49;64.09;101291.56;6155928;23;20029;-79
2021/07/16 04:25:19;;;;;;;41.80;15.30;;;;;;;21.41;64.34;101291.66;6151891;23;20029;-81
2021/07/16 04:27:48;;;;;;;34.03;12.98;;;;;;;21.57;63.71;101285.09;6152263;23;20036;-82
2021/07/16 04:30:14;;;;;;;39.38;14.30;;;;;;;21.56;63.82;101289.72;6152077;23;20035;-81
2021/07/16 04:32:41;;;;;;;38.85;13.95;;;;;;;21.59;63.76;101291.22;6152675;23;20346;-82
2021/07/16 04:35:08;;;;;;;36.53;12.60;;;;;;;21.78;63.06;101293.31;6150135;23;20024;-82
2021/07/16 04:37:37;;;;;;;34.85;12.65;;;;;;;21.67;63.07;101303.94;6150204;23;20002;-81
2021/07/16 04:40:08;;;;;;;34.25;13.25;;;;;;;21.57;63.38;101299.63;6151599;23;20009;-82
2021/07/16 04:42:33;;;;;;;33.28;12.57;;;;;;;21.69;63.39;101307.31;6151800;23;20012;-81
2021/07/16 04:44:59;;;;;;;25.08;9.88;;;;;;;21.73;62.97;101309.50;6152271;23;20363;-82
2021/07/16 04:47:24;;;;;;;32.92;12.80;;;;;;;21.60;63.67;101313.97;6149555;23;20430;-82
2021/07/16 04:49:50;;;;;;;35.05;13.32;;;;;;;21.68;63.10;101314.69;6153076;23;20039;-82
2021/07/16 04:52:15;;;;;;;35.03;13.10;;;;;;;21.93;62.58;101325.25;6153711;23;20012;-81
2021/07/16 04:54:40;;;;;;;25.90;11.35;;;;;;;22.09;62.05;101329.59;6152185;23;20009;-82
2021/07/16 04:57:08;;;;;;;32.58;11.95;;;;;;;21.96;62.30;101328.44;6153476;23;20040;-82
2021/07/16 04:59:34;;;;;;;31.10;12.18;;;;;;;21.95;62.46;101339.63;6153889;23;20032;-82
2021/07/16 05:02:00;;;;;;;30.58;12.02;;;;;;;22.11;61.95;101327.53;6151823;23;20005;-82
2021/07/16 05:04:25;;;;;;;29.65;12.32;;;;;;;22.21;61.39;101339.88;6152295;23;20012;-82
2021/07/16 05:06:50;;;;;;;26.65;10.20;;;;;;;22.31;60.99;101345.00;6152636;23;20362;-82
2021/07/16 05:09:16;;;;;;;37.58;14.25;;;;;;;22.32;60.52;101343.97;6154051;23;20005;-82
2021/07/16 05:11:42;;;;;;;27.77;12.48;;;;;;;22.36;60.45;101345.25;6153874;23;20016;-81
2021/07/16 05:14:07;;;;;;;36.72;13.27;;;;;;;22.28;60.61;101342.66;6151663;23;20002;-82
2021/07/16 05:16:33;;;;;;;26.42;10.77;;;;;;;22.42;60.13;101346.38;6151721;23;20010;-82
2021/07/16 05:18:58;;;;;;;32.33;12.50;;;;;;;22.55;59.79;101345.59;6153931;23;20015;-82
2021/07/16 05:21:24;;;;;;;33.83;13.65;;;;;;;22.28;60.13;101350.88;6153855;23;20326;-82
2021/07/16 05:23:49;;;;;;;29.80;11.85;;;;;;;22.48;60.05;101356.53;6153598;23;20005;-82
2021/07/16 05:26:15;;;;;;;38.00;13.98;;;;;;;22.47;59.94;101363.91;6153601;23;20060;-81
2021/07/16 05:28:41;;;;;;;29.33;13.57;;;;;;;22.46;60.06;101358.59;6153738;23;20059;-82
2021/07/16 05:31:08;;;;;;;30.65;14.20;;;;;;;22.48;59.74;101353.78;6153805;23;20077;-82
2021/07/16 05:33:33;;;;;;;34.97;13.32;;;;;;;22.56;59.28;101355.50;6153666;23;20032;-81
2021/07/16 05:35:58;;;;;;;39.47;14.43;;;;;;;22.44;60.10;101356.09;6153462;23;20037;-82
2021/07/16 05:38:25;;;;;;;28.13;12.68;;;;;;;22.04;61.25;101357.59;6151668;23;20029;-82
2021/07/16 05:40:51;;;;;;;32.58;12.60;;;;;;;22.05;61.71;101358.44;6151389;23;20080;-82
2021/07/16 05:43:17;;;;;;;26.63;13.18;;;;;;;21.68;62.70;101347.53;6152922;23;20033;-82
2021/07/16 05:45:43;;;;;;;30.10;13.82;;;;;;;21.91;62.34;101357.47;6153554;23;20048;-81
2021/07/16 05:48:10;;;;;;;31.88;14.27;;;;;;;22.00;61.73;101359.88;6150974;23;20005;-81
2021/07/16 05:50:37;;;;;;;34.72;14.50;;;;;;;22.12;61.63;101357.44;6153286;23;20339;-81
2021/07/16 05:53:02;;;;;;;37.40;15.05;;;;;;;22.16;61.27;101358.81;6151295;23;20088;-82
2021/07/16 05:55:29;;;;;;;33.05;13.10;;;;;;;22.03;61.73;101359.47;6151246;23;20032;-81
2021/07/16 05:57:54;;;;;;;37.10;15.57;;;;;;;21.96;62.21;101363.22;6152958;23;20508;-81
2021/07/16 06:00:20;;;;;;;39.00;13.88;;;;;;;22.01;62.26;101356.09;6151070;23;20100;-82
2021/07/16 06:02:45;;;;;;;44.75;13.27;;;;;;;21.68;62.95;101355.75;6153329;23;20038;-81
2021/07/16 06:05:11;;;;;;;37.58;13.48;;;;;;;21.84;62.67;101356.56;6152925;23;20518;-82
2021/07/16 06:07:36;;;;;;;36.70;10.75;;;;;;;22.00;62.44;101362.59;6152805;23;20101;-81
2021/07/16 06:10:03;;;;;;;33.47;11.80;;;;;;;22.06;62.49;101358.25;6153218;23;20005;-82
2021/07/16 06:12:28;;;;;;;42.00;13.75;;;;;;;21.95;62.34;101370.59;6153008;23;20057;-81
2021/07/16 06:14:55;;;;;;;43.70;12.35;;;;;;;22.08;62.43;101366.28;6151491;23;20430;-81
2021/07/16 06:17:25;;;;;;;43.90;11.23;;;;;;;22.20;62.39;101365.56;6153262;23;20040;-81
2021/07/16 06:19:51;;;;;;;38.78;10.93;;;;;;;22.35;61.84;101370.13;6153217;23;20096;-81
2021/07/16 06:22:17;;;;;;;34.90;12.05;;;;;;;22.25;61.82;101365.84;6153235;23;20009;-82
2021/07/16 06:24:42;;;;;;;34.55;11.52;;;;;;;22.42;61.55;101371.88;6152963;23;20132;-81
2021/07/16 06:27:08;;;;;;;35.15;10.45;;;;;;;22.40;61.85;101373.09;6152934;23;20028;-81
2021/07/16 06:29:34;;;;;;;37.25;10.32;;;;;;;22.38;61.98;101367.00;6153136;23;20434;-82
2021/07/16 06:31:59;;;;;;;34.58;9.88;;;;;;;22.47;61.50;101372.13;6153025;23;20009;-81
2021/07/16 06:34:25;;;;;;;33.22;10.70;;;;;;;22.53;61.34;101375.97;6150721;23;20017;-82
2021/07/16 06:36:50;;;;;;;38.70;10.75;;;;;;;22.51;61.41;101371.72;6150986;23;20010;-82
2021/07/16 06:39:16;;;;;;;43.78;8.88;;;;;;;22.47;61.54;101366.66;6150941;23;20002;-82
2021/07/16 06:41:41;;;;;;;35.33;9.35;;;;;;;22.46;61.89;101366.84;6151377;23;20012;-82
2021/07/16 06:44:08;;;;;;;34.00;9.60;;;;;;;22.38;61.94;101378.81;6153003;23;20001;-82
2021/07/16 06:46:34;;;;;;;32.05;9.05;;;;;;;22.29;62.57;101374.50;6153116;23;20021;-82
2021/07/16 06:48:59;;;;;;;30.63;8.55;;;;;;;22.51;62.08;101380.81;6152733;23;20005;-81
2021/07/16 06:51:24;;;;;;;43.15;9.43;;;;;;;22.49;62.02;101385.63;6152319;23;20050;-81
2021/07/16 06:53:50;;;;;;;37.13;9.48;;;;;;;22.50;62.40;101381.84;6152887;23;20014;-82
2021/07/16 06:56:15;;;;;;;39.22;8.32;;;;;;;22.70;61.56;101387.47;6151363;23;20036;-81
2021/07/16 06:58:40;;;;;;;30.45;7.97;;;;;;;22.63;61.40;101384.69;6153168;23;20387;-81
2021/07/16 07:01:07;;;;;;;31.83;8.55;;;;;;;22.54;61.01;101385.88;6152788;23;20005;-82
2021/07/16 07:03:32;;;;;;;37.03;8.25;;;;;;;22.70;61.29;101392.97;6152539;23;20001;-81
2021/07/16 07:05:58;;;;;;;32.88;7.82;;;;;;;22.85;60.79;101396.44;6150646;23;20021;-82
2021/07/16 07:08:23;;;;;;;32.45;8.88;;;;;;;22.88;60.90;101393.28;6152704;23;20073;-82
2021/07/16 07:10:49;;;;;;;34.10;9.70;;;;;;;22.96;60.70;101396.94;6152850;23;20378;-82
2021/07/16 07:13:14;;;;;;;29.33;7.95;;;;;;;22.88;60.29;101398.78;6149743;23;20002;-81
2021/07/16 07:15:40;;;;;;;27.38;7.60;;;;;;;22.95;60.29;101396.09;6152695;23;20084;-81
2021/07/16 07:18:07;;;;;;;35.60;9.43;;;;;;;22.94;59.95;101399.91;6150781;23;20498;-82
2021/07/16 07:20:33;;;;;;;29.38;8.13;;;;;;;23.09;59.92;101406.13;6152389;23;20434;-81
2021/07/16 07:23:03;;;;;;;28.33;8.35;;;;;;;23.14;59.90;101409.13;6152657;23;20076;-82
2021/07/16 07:25:29;;;;;;;33.92;8.38;;;;;;;23.11;60.37;101400.41;6152884;23;20009;-82
2021/07/16 07:27:55;;;;;;;30.30;7.35;;;;;;;23.31;59.24;101408.78;6152308;23;20005;-82
2021/07/16 07:30:21;;;;;;;40.22;10.90;;;;;;;23.30;59.87;101405.19;6152739;23;20020;-81
2021/07/16 07:32:46;;;;;;;31.75;7.60;;;;;;;23.36;59.12;101404.38;6152263;23;20001;-82
2021/07/16 07:35:12;;;;;;;26.50;8.02;;;;;;;23.35;58.97;101408.16;6150834;23;20005;-82
2021/07/16 07:37:38;;;;;;;29.45;7.78;;;;;;;23.38;59.24;101409.63;6152801;23;20449;-82
2021/07/16 07:40:06;;;;;;;23.35;7.20;;;;;;;23.43;58.84;101411.78;6152411;23;20004;-82
2021/07/16 07:42:32;;;;;;;34.53;7.85;;;;;;;23.42;58.86;101410.06;6150348;23;20434;-82
2021/07/16 07:44:57;;;;;;;32.80;7.63;;;;;;;23.41;59.16;101406.47;6152332;23;20016;-82
2021/07/16 07:47:22;;;;;;;28.50;8.20;;;;;;;23.37;59.28;101407.97;6152164;23;20012;-82
2021/07/16 07:49:48;;;;;;;28.80;6.53;;;;;;;23.52;58.74;101407.81;6152331;23;20005;-82
2021/07/16 07:52:14;;;;;;;28.05;7.07;;;;;;;23.59;59.01;101414.16;6152331;23;20345;-82
2021/07/16 07:54:39;;;;;;;31.73;7.30;;;;;;;23.57;58.49;101414.38;6152598;23;20435;-82
2021/07/16 07:57:05;;;;;;;30.73;8.93;;;;;;;23.59;58.66;101414.16;6152635;23;20013;-82
2021/07/16 07:59:30;;;;;;;24.35;7.03;;;;;;;23.59;58.18;101415.00;6151988;23;20085;-82
2021/07/16 08:01:56;;;;;;;22.85;6.13;;;;;;;23.70;58.56;101415.53;6152161;23;20016;-82
2021/07/16 08:04:21;;;;;;;29.10;7.15;;;;;;;23.76;57.93;101420.19;6151862;23;20096;-81
2021/07/16 08:06:46;;;;;;;22.90;6.93;;;;;;;23.82;57.37;101411.97;6152755;23;20430;-82
2021/07/16 08:09:12;;;;;;;26.05;8.10;;;;;;;23.77;57.79;101425.47;6152155;23;20057;-82
2021/07/16 08:11:37;;;;;;;25.58;6.75;;;;;;;23.79;58.18;101417.88;6152936;23;20457;-82
2021/07/16 08:14:03;;;;;;;28.17;7.05;;;;;;;23.87;57.19;101411.31;6152681;23;20067;-82
2021/07/16 08:16:29;;;;;;;24.80;6.30;;;;;;;23.96;57.43;101415.56;6150666;23;20445;-82
2021/07/16 08:18:54;;;;;;;28.25;7.18;;;;;;;24.00;57.83;101424.28;6151685;23;20005;-82
2021/07/16 08:21:21;;;;;;;26.98;6.80;;;;;;;24.10;57.61;101413.72;6152398;23;20009;-82
2021/07/16 08:23:46;;;;;;;23.08;6.53;;;;;;;24.10;57.74;101418.38;6152173;23;20069;-82
2021/07/16 08:26:13;;;;;;;28.50;6.95;;;;;;;24.12;57.20;101419.88;6154125;23;20404;-82
2021/07/16 08:28:39;;;;;;;26.30;6.57;;;;;;;24.20;57.23;101427.88;6153944;23;20010;-82
2021/07/16 08:31:04;;;;;;;25.17;7.20;;;;;;;24.23;57.74;101427.47;6154078;23;20399;-82
2021/07/16 08:33:30;;;;;;;22.38;7.68;;;;;;;24.27;57.04;101430.63;6153907;23;20227;-82
2021/07/16 08:35:55;;;;;;;23.42;6.07;;;;;;;24.32;56.75;101439.13;6153914;23;20005;-82
2021/07/16 08:38:20;;;;;;;24.63;7.55;;;;;;;24.35;56.22;101429.59;6154118;23;20009;-82
2021/07/16 08:40:46;;;;;;;24.80;5.85;;;;;;;24.39;56.05;101431.72;6154126;23;20005;-82
2021/07/16 08:43:16;;;;;;;23.08;7.93;;;;;;;24.40;55.98;101432.59;6151707;23;20010;-82
2021/07/16 08:45:41;;;;;;;29.70;7.25;;;;;;;24.45;56.28;101439.16;6154080;23;20045;-82
2021/07/16 08:48:08;;;;;;;23.90;5.90;;;;;;;24.43;56.32;101438.53;6153885;23;20010;-82
2021/07/16 08:50:34;;;;;;;23.67;6.03;;;;;;;24.37;56.08;101441.25;6154156;23;20017;-82
2021/07/16 08:53:03;;;;;;;20.60;6.28;;;;;;;24.54;55.88;101437.88;6151945;23;20077;-82
2021/07/16 08:55:36;;;;;;;20.08;5.57;;;;;;;24.55;55.05;101444.25;6153916;23;20005;-82
2021/07/16 08:58:05;;;;;;;23.67;5.97;;;;;;;24.50;54.44;101441.28;6151842;23;20440;-82
2021/07/16 09:00:31;;;;;;;24.50;6.03;;;;;;;24.52;55.15;101434.53;6151657;23;20561;-82
2021/07/16 09:02:58;;;;;;;24.98;6.25;;;;;;;24.59;54.04;101442.75;6153780;23;20005;-82
2021/07/16 09:05:39;;;;;;;18.45;5.25;;;;;;;24.67;54.31;101445.31;6153240;23;20450;-82
2021/07/16 09:08:20;;;;;;;22.60;5.60;;;;;;;24.71;52.51;101432.81;6153988;23;20013;-82
2021/07/16 09:10:49;;;;;;;19.25;5.00;;;;;;;24.75;52.20;101434.06;6154111;23;20009;-82
2021/07/16 09:13:16;;;;;;;19.63;6.32;;;;;;;24.77;52.63;101439.38;6153262;23;20014;-82
2021/07/16 09:15:50;;;;;;;20.15;5.35;;;;;;;24.78;51.56;101435.56;6151518;23;20464;-82
2021/07/16 09:18:22;;;;;;;15.57;4.72;;;;;;;24.88;50.84;101440.63;6154194;23;20020;-82
2021/07/16 09:20:49;;;;;;;18.92;5.20;;;;;;;24.89;52.00;101439.59;6154516;23;20005;-82
2021/07/16 09:23:17;;;;;;;23.00;5.15;;;;;;;24.99;52.34;101446.34;6154205;23;20032;-82
2021/07/16 09:25:44;;;;;;;15.23;5.15;;;;;;;25.02;50.78;101441.47;6154270;23;20032;-82
2021/07/16 09:28:25;;;;;;;16.35;4.65;;;;;;;25.00;49.88;101438.91;6154023;23;20453;-82
2021/07/16 09:30:53;;;;;;;15.82;4.88;;;;;;;25.03;51.68;101445.91;6153508;23;20013;-82
2021/07/16 09:33:18;;;;;;;18.90;5.13;;;;;;;25.12;51.62;101439.94;6153760;23;20014;-82
2021/07/16 09:35:44;;;;;;;19.73;6.03;;;;;;;25.07;52.60;101445.28;6153511;23;20080;-82
2021/07/16 09:38:14;;;;;;;20.63;6.18;;;;;;;25.19;52.53;101446.34;6153564;23;20024;-82
2021/07/16 09:40:46;;;;;;;16.38;5.63;;;;;;;25.25;52.22;101446.53;6151915;23;20458;-82
2021/07/16 09:43:11;;;;;;;19.67;6.50;;;;;;;25.34;52.39;101445.22;6153356;23;20002;-82
2021/07/16 09:45:42;;;;;;;21.13;6.47;;;;;;;25.31;51.44;101441.00;6153088;23;20008;-82
2021/07/16 09:48:29;;;;;;;22.95;5.80;;;;;;;25.32;51.44;101452.88;6154560;23;20242;-82
2021/07/16 09:51:25;;;;;;;29.15;5.97;;;;;;;25.30;51.53;101455.00;6153725;23;20005;-82
2021/07/16 09:53:52;;;;;;;23.63;6.43;;;;;;;25.42;51.30;101448.59;6153394;23;20032;-82
2021/07/16 09:56:22;;;;;;;19.90;6.30;;;;;;;25.39;51.02;101448.19;6152443;23;20044;-82
2021/07/16 09:58:49;;;;;;;19.95;6.07;;;;;;;25.49;51.81;101439.47;6151821;23;20010;-82
2021/07/16 10:01:15;;;;;;;21.88;6.50;;;;;;;25.53;51.81;101444.34;6153422;23;20012;-82
2021/07/16 10:03:42;;;;;;;24.90;6.35;;;;;;;25.59;51.54;101442.59;6151349;23;20029;-82
2021/07/16 10:06:12;;;;;;;23.58;6.50;;;;;;;25.63;50.99;101450.22;6152983;23;20076;-82
2021/07/16 10:08:38;;;;;;;17.58;5.25;;;;;;;25.60;50.88;101449.81;6153045;23;20009;-82
2021/07/16 10:11:06;;;;;;;17.65;4.97;;;;;;;25.72;51.10;101453.56;6153270;23;20088;-82
2021/07/16 10:13:34;;;;;;;18.05;5.75;;;;;;;25.72;51.39;101455.47;6151168;23;20109;-82
2021/07/16 10:16:01;;;;;;;23.95;5.75;;;;;;;25.71;50.64;101451.00;6151484;23;20068;-82
2021/07/16 10:18:26;;;;;;;23.52;6.28;;;;;;;25.82;51.09;101453.97;6152603;23;20010;-82
2021/07/16 10:20:52;;;;;;;25.98;6.20;;;;;;;25.95;50.76;101457.72;6151257;23;20041;-82
2021/07/16 10:23:18;;;;;;;21.13;5.75;;;;;;;25.89;50.25;101463.03;6153223;23;20427;-82
2021/07/16 10:25:48;;;;;;;16.17;5.65;;;;;;;25.98;50.46;101463.63;6151064;23;20465;-82
2021/07/16 10:28:41;;;;;;;15.57;4.90;;;;;;;26.03;50.36;101465.75;6153078;23;20088;-82
2021/07/16 10:31:29;;;;;;;14.07;4.88;;;;;;;26.06;49.50;101466.13;6153264;23;20016;-82
2021/07/16 10:33:56;;;;;;;15.90;4.28;;;;;;;25.98;45.91;101466.38;6150362;23;20006;-82
2021/07/16 10:36:44;;;;;;;11.48;3.42;;;;;;;26.04;44.73;101468.25;6152790;23;20323;-82
2021/07/16 10:39:22;;;;;;;15.30;3.85;;;;;;;26.13;46.67;101469.69;6153203;23;20011;-82
2021/07/16 10:41:47;;;;;;;9.18;3.90;;;;;;;26.22;46.37;101466.69;6152916;23;20016;-82
2021/07/16 10:44:15;;;;;;;19.85;5.43;;;;;;;26.15;46.86;101471.41;6153233;23;20382;-82
2021/07/16 10:46:44;;;;;;;12.40;4.05;;;;;;;26.22;46.60;101473.03;6150617;23;20006;-82
2021/07/16 10:49:12;;;;;;;11.70;4.07;;;;;;;26.26;46.25;101478.94;6152466;23;20016;-82
2021/07/16 10:51:39;;;;;;;20.60;5.55;;;;;;;26.30;46.62;101491.25;6153017;23;20012;-82
2021/07/16 10:54:10;;;;;;;14.00;3.55;;;;;;;26.41;46.81;101490.50;6150724;23;20012;-82
2021/07/16 10:56:48;;;;;;;16.00;3.70;;;;;;;26.44;45.84;101490.06;6152797;23;20084;-82
2021/07/16 10:59:43;;;;;;;17.35;4.60;;;;;;;26.47;45.61;101486.03;6152477;23;20010;-82
2021/07/16 11:02:40;;;;;;;10.50;3.30;;;;;;;26.51;44.39;101484.56;6152878;23;20006;-82
2021/07/16 11:05:30;;;;;;;12.73;3.70;;;;;;;26.50;44.91;101483.69;6152262;23;20072;-82
2021/07/16 11:07:56;;;;;;;18.13;5.47;;;;;;;26.51;45.65;101482.66;6152747;23;20382;-82
2021/07/16 11:10:50;;;;;;;11.25;4.05;;;;;;;26.57;45.87;101478.16;6152361;23;20013;-82
2021/07/16 11:13:34;;;;;;;17.75;5.63;;;;;;;26.72;46.43;101481.44;6152754;23;20005;-81
2021/07/16 11:15:59;;;;;;;11.63;4.20;;;;;;;26.71;45.66;101482.47;6150595;23;20052;-82